createdAt,value
2018-03-19T00:00:51.179Z,55.80
2018-03-19T00:03:18.741Z,55.90
2018-03-19T00:05:46.263Z,55.70
2018-03-19T00:08:13.719Z,54.80
2018-03-19T00:10:41.190Z,55.20
2018-03-19T00:13:08.647Z,57.20
2018-03-19T00:15:36.112Z,55.50
2018-03-19T00:18:03.586Z,55.70
2018-03-19T00:20:31.044Z,56.40
2018-03-19T00:22:58.550Z,55.90
2018-03-19T00:25:26.016Z,56.70
2018-03-19T00:27:53.538Z,56.30
2018-03-19T00:30:21.061Z,55.70
2018-03-19T00:32:48.531Z,56.40
2018-03-19T00:35:15.990Z,57.50
2018-03-19T00:37:43.469Z,58.50
2018-03-19T00:40:10.944Z,57.40
2018-03-19T00:42:38.416Z,57.10
2018-03-19T00:45:05.989Z,57.30
2018-03-19T00:47:33.451Z,58.70
2018-03-19T00:50:00.912Z,57.90
2018-03-19T00:52:28.394Z,56.80
2018-03-19T00:54:55.918Z,57.00
2018-03-19T00:57:23.395Z,57.70
2018-03-19T00:59:50.904Z,57.30
2018-03-19T01:02:18.356Z,57.30
2018-03-19T01:04:45.843Z,57.30
2018-03-19T01:07:13.315Z,57.80
2018-03-19T01:09:40.791Z,57.70
2018-03-19T01:12:08.244Z,58.20
2018-03-19T01:14:35.712Z,58.00
2018-03-19T01:17:03.186Z,58.80
2018-03-19T01:19:30.657Z,58.10
2018-03-19T01:21:58.119Z,58.10
2018-03-19T01:24:25.624Z,58.70
2018-03-19T01:26:53.043Z,59.50
2018-03-19T01:29:20.515Z,61.80
2018-03-19T01:31:47.964Z,59.00
2018-03-19T01:34:15.439Z,58.60
2018-03-19T01:36:42.948Z,58.70
2018-03-19T01:39:10.423Z,58.70
2018-03-19T01:41:37.879Z,59.70
2018-03-19T01:44:05.339Z,58.50
2018-03-19T01:46:32.831Z,59.00
2018-03-19T01:49:00.282Z,59.50
2018-03-19T01:51:27.781Z,59.50
2018-03-19T01:53:55.215Z,59.40
2018-03-19T01:56:22.683Z,59.00
2018-03-19T01:58:50.179Z,59.10
2018-03-19T02:01:17.688Z,60.90
2018-03-19T02:03:45.941Z,58.80
2018-03-19T02:06:13.420Z,58.70
2018-03-19T02:08:40.880Z,58.40
2018-03-19T02:11:08.347Z,58.10
2018-03-19T02:13:35.827Z,58.30
2018-03-19T02:16:03.296Z,58.20
2018-03-19T02:18:30.751Z,58.60
2018-03-19T02:20:58.235Z,58.10
2018-03-19T02:23:25.687Z,58.70
2018-03-19T02:25:53.204Z,59.20
2018-03-19T02:28:21.496Z,58.30
2018-03-19T02:30:48.890Z,58.40
2018-03-19T02:33:16.360Z,59.80
2018-03-19T02:35:43.810Z,60.20
2018-03-19T02:38:11.291Z,59.70
2018-03-19T02:40:38.751Z,59.00
2018-03-19T02:43:06.979Z,58.90
2018-03-19T02:45:34.432Z,58.80
2018-03-19T02:48:01.900Z,58.70
2018-03-19T02:50:29.396Z,58.60
2018-03-19T02:52:56.867Z,59.50
2018-03-19T02:55:24.321Z,60.30
2018-03-19T02:57:51.796Z,59.40
2018-03-19T03:00:19.258Z,59.50
2018-03-19T03:02:46.739Z,59.60
2018-03-19T03:05:14.195Z,58.70
2018-03-19T03:07:41.746Z,60.60
2018-03-19T03:10:09.268Z,60.10
2018-03-19T03:12:36.727Z,59.40
2018-03-19T03:15:04.224Z,58.90
2018-03-19T03:17:31.681Z,60.90
2018-03-19T03:19:59.167Z,60.00
2018-03-19T03:22:26.670Z,60.60
2018-03-19T03:24:54.236Z,61.40
2018-03-19T03:27:21.755Z,59.20
2018-03-19T03:29:49.231Z,60.70
2018-03-19T03:32:16.799Z,61.00
2018-03-19T03:34:44.267Z,60.20
2018-03-19T03:37:11.724Z,60.60
2018-03-19T03:39:39.187Z,60.40
2018-03-19T03:42:06.730Z,60.70
2018-03-19T03:44:34.302Z,59.90
2018-03-19T03:47:02.539Z,60.40
2018-03-19T03:49:30.007Z,60.30
2018-03-19T03:51:57.467Z,59.60
2018-03-19T03:54:24.923Z,59.90
2018-03-19T03:56:52.416Z,60.50
2018-03-19T03:59:19.871Z,61.10
2018-03-19T04:01:47.335Z,60.30
2018-03-19T04:04:14.791Z,61.40
2018-03-19T04:06:42.259Z,62.10
2018-03-19T04:09:09.711Z,61.30
2018-03-19T04:11:37.187Z,59.70
2018-03-19T04:14:04.638Z,62.90
2018-03-19T04:16:32.871Z,60.00
2018-03-19T04:19:00.331Z,59.90
2018-03-19T04:21:27.798Z,61.50
2018-03-19T04:23:55.260Z,60.80
2018-03-19T04:26:22.731Z,61.30
2018-03-19T04:28:50.239Z,61.40
2018-03-19T04:31:17.715Z,61.90
2018-03-19T04:33:45.171Z,61.50
2018-03-19T04:36:12.627Z,62.20
2018-03-19T04:38:40.104Z,60.80
2018-03-19T04:41:07.558Z,61.00
2018-03-19T04:43:35.023Z,60.70
2018-03-19T04:46:02.483Z,61.00
2018-03-19T04:48:29.948Z,61.90
2018-03-19T04:50:57.400Z,61.20
2018-03-19T04:53:25.631Z,61.90
2018-03-19T04:55:53.180Z,61.80
2018-03-19T04:58:20.648Z,61.60
2018-03-19T05:00:48.121Z,62.70
2018-03-19T05:03:15.587Z,63.20
2018-03-19T05:05:43.113Z,63.50
2018-03-19T05:08:10.582Z,63.00
2018-03-19T05:10:38.039Z,65.10
2018-03-19T05:13:05.522Z,62.30
2018-03-19T05:15:32.991Z,63.40
2018-03-19T05:18:00.450Z,63.10
2018-03-19T05:20:27.924Z,63.00
2018-03-19T05:22:55.383Z,62.00
2018-03-19T05:25:22.855Z,63.80
2018-03-19T05:27:50.312Z,64.30
2018-03-19T05:30:17.786Z,64.90
2018-03-19T05:32:45.275Z,62.70
2018-03-19T05:35:12.760Z,62.90
2018-03-19T05:37:40.215Z,63.30
2018-03-19T05:40:07.693Z,62.60
2018-03-19T05:42:35.147Z,63.90
2018-03-19T05:45:02.619Z,61.50
2018-03-19T05:47:30.099Z,63.90
2018-03-19T05:49:57.579Z,64.00
2018-03-19T05:52:25.050Z,62.80
2018-03-19T05:54:52.529Z,62.30
2018-03-19T05:57:19.986Z,62.00
2018-03-19T05:59:47.447Z,62.90
2018-03-19T06:02:14.955Z,62.20
2018-03-19T06:04:43.377Z,63.40
2018-03-19T06:07:10.943Z,63.40
2018-03-19T06:09:38.519Z,62.30
2018-03-19T06:12:06.064Z,62.40
2018-03-19T06:14:33.611Z,61.50
2018-03-19T06:17:01.952Z,62.80
2018-03-19T06:19:29.416Z,62.80
2018-03-19T06:21:56.883Z,61.90
2018-03-19T06:24:24.339Z,68.00
2018-03-19T06:26:51.808Z,68.20
2018-03-19T06:29:20.052Z,62.90
2018-03-19T06:31:47.618Z,62.70
2018-03-19T06:34:26.413Z,62.30
2018-03-19T06:36:53.988Z,62.20
2018-03-19T06:39:21.443Z,62.80
2018-03-19T06:41:49.719Z,61.10
2018-03-19T06:44:17.944Z,62.10
2018-03-19T06:46:45.444Z,62.00
2018-03-19T06:49:12.912Z,61.90
2018-03-19T06:51:40.371Z,61.70
2018-03-19T06:54:07.855Z,62.30
2018-03-19T06:56:35.307Z,62.20
2018-03-19T06:59:02.795Z,61.80
2018-03-19T07:01:30.279Z,62.90
2018-03-19T07:03:57.789Z,61.90
2018-03-19T07:06:26.037Z,61.20
2018-03-19T07:08:53.499Z,61.20
2018-03-19T07:11:21.022Z,61.10
2018-03-19T07:13:48.535Z,61.80
2018-03-19T07:16:15.989Z,62.30
2018-03-19T07:18:43.533Z,61.80
2018-03-19T07:21:10.984Z,61.20
2018-03-19T07:23:38.533Z,60.90
2018-03-19T07:26:06.043Z,61.20
2018-03-19T07:28:34.318Z,61.40
2018-03-19T07:31:01.850Z,61.40
2018-03-19T07:33:29.308Z,61.00
2018-03-19T07:35:56.775Z,60.20
2018-03-19T07:38:24.226Z,60.20
2018-03-19T07:40:51.714Z,60.10
2018-03-19T07:43:19.253Z,62.40
2018-03-19T07:45:46.776Z,60.40
2018-03-19T07:48:14.239Z,60.00
2018-03-19T07:50:41.707Z,60.40
2018-03-19T07:53:09.170Z,60.50
2018-03-19T07:55:36.715Z,59.60
2018-03-19T07:58:04.192Z,59.30
2018-03-19T08:00:31.657Z,60.40
2018-03-19T08:02:59.107Z,60.60
2018-03-19T08:05:27.343Z,59.10
2018-03-19T08:07:54.795Z,59.20
2018-03-19T08:10:22.341Z,59.60
2018-03-19T08:12:50.574Z,59.40
2018-03-19T08:15:18.052Z,59.30
2018-03-19T08:17:45.579Z,58.70
2018-03-19T08:20:13.067Z,58.40
2018-03-19T08:22:40.640Z,58.90
2018-03-19T08:25:08.082Z,58.80
2018-03-19T08:27:35.554Z,58.20
2018-03-19T08:30:03.040Z,57.70
2018-03-19T08:32:30.598Z,56.40
2018-03-19T08:34:58.064Z,56.50
2018-03-19T08:37:25.534Z,54.50
2018-03-19T08:39:53.003Z,54.10
2018-03-19T08:42:21.293Z,53.20
2018-03-19T08:44:48.704Z,53.30
2018-03-19T08:47:16.174Z,53.70
2018-03-19T08:49:43.639Z,53.60
2018-03-19T08:52:11.110Z,53.20
2018-03-19T08:54:38.579Z,51.70
2018-03-19T08:57:06.031Z,51.90
2018-03-19T08:59:33.503Z,51.60
2018-03-19T09:02:00.998Z,50.40
2018-03-19T09:04:28.438Z,48.30
2018-03-19T09:06:55.925Z,47.90
2018-03-19T09:09:23.379Z,47.10
2018-03-19T09:11:50.824Z,46.90
2018-03-19T09:14:18.334Z,46.70
2018-03-19T09:16:45.844Z,45.70
2018-03-19T09:19:13.275Z,45.50
2018-03-19T09:21:40.734Z,44.30
2018-03-19T09:24:08.179Z,44.40
2018-03-19T09:26:35.637Z,44.20
2018-03-19T09:29:03.858Z,44.30
2018-03-19T09:31:31.332Z,44.20
2018-03-19T09:33:58.810Z,44.10
2018-03-19T09:36:26.259Z,45.10
2018-03-19T09:38:53.722Z,44.70
2018-03-19T09:41:21.200Z,43.00
2018-03-19T09:43:48.692Z,42.00
2018-03-19T09:46:16.138Z,42.50
2018-03-19T09:48:43.635Z,41.80
2018-03-19T09:51:11.106Z,42.30
2018-03-19T09:53:38.558Z,39.00
2018-03-19T09:56:06.026Z,39.90
2018-03-19T09:58:33.478Z,41.70
2018-03-19T10:01:00.939Z,42.10
2018-03-19T10:03:28.409Z,42.70
2018-03-19T10:05:56.620Z,40.30
2018-03-19T10:08:24.115Z,40.20
2018-03-19T10:10:51.639Z,40.20
2018-03-19T10:13:19.873Z,37.40
2018-03-19T10:15:47.318Z,37.40
2018-03-19T10:18:14.806Z,37.40
2018-03-19T10:20:42.371Z,36.60
2018-03-19T10:23:09.819Z,36.40
2018-03-19T10:25:37.271Z,37.20
2018-03-19T10:28:04.751Z,36.70
2018-03-19T10:30:32.218Z,35.00
2018-03-19T10:32:59.690Z,36.00
2018-03-19T10:35:27.144Z,33.80
2018-03-19T10:37:55.398Z,34.00
2018-03-19T10:40:22.867Z,33.80
2018-03-19T10:42:50.323Z,33.60
2018-03-19T10:45:17.894Z,34.10
2018-03-19T10:47:45.371Z,31.70
2018-03-19T10:50:12.826Z,31.40
2018-03-19T10:52:40.293Z,30.00
2018-03-19T10:55:07.763Z,30.80
2018-03-19T10:57:35.265Z,30.80
2018-03-19T11:00:02.730Z,30.90
2018-03-19T11:02:32.193Z,30.60
2018-03-19T11:05:05.434Z,31.60
2018-03-19T11:07:38.842Z,30.80
2018-03-19T11:10:06.423Z,31.30
2018-03-19T11:12:33.891Z,29.30
2018-03-19T11:15:01.375Z,29.00
2018-03-19T11:17:28.926Z,31.30
2018-03-19T11:19:56.399Z,30.20
2018-03-19T11:22:23.867Z,28.90
2018-03-19T11:24:51.328Z,29.30
2018-03-19T11:27:18.855Z,28.60
2018-03-19T11:29:47.162Z,27.40
2018-03-19T11:32:14.610Z,27.40
2018-03-19T11:34:42.851Z,25.60
2018-03-19T11:37:10.307Z,25.50
2018-03-19T11:39:37.809Z,26.80
2018-03-19T11:42:05.269Z,26.10
2018-03-19T11:44:32.728Z,26.30
2018-03-19T11:47:00.195Z,28.20
2018-03-19T11:49:27.651Z,28.30
2018-03-19T11:51:55.155Z,26.70
2018-03-19T11:54:22.618Z,25.30
2018-03-19T11:56:50.078Z,25.20
2018-03-19T11:59:17.755Z,24.70
2018-03-19T12:01:45.239Z,25.40
2018-03-19T12:04:12.735Z,25.90
2018-03-19T12:06:40.190Z,24.20
2018-03-19T12:09:07.666Z,24.40
2018-03-19T12:11:35.130Z,24.40
2018-03-19T12:14:02.586Z,23.90
2018-03-19T12:16:30.464Z,24.50
2018-03-19T12:18:57.916Z,23.50
2018-03-19T12:21:25.363Z,25.00
2018-03-19T12:23:52.878Z,24.50
2018-03-19T12:26:20.343Z,24.40
2018-03-19T12:28:47.815Z,23.90
2018-03-19T12:31:15.284Z,24.50
2018-03-19T12:33:42.731Z,23.50
2018-03-19T12:36:10.194Z,24.00
2018-03-19T12:38:37.707Z,23.40
2018-03-19T12:41:05.259Z,24.20
2018-03-19T12:43:32.717Z,23.30
2018-03-19T12:46:00.207Z,23.70
2018-03-19T12:48:27.671Z,23.20
2018-03-19T12:50:55.240Z,22.10
2018-03-19T12:53:23.398Z,24.00
2018-03-19T12:55:50.858Z,24.00
2018-03-19T12:58:18.298Z,23.40
2018-03-19T13:00:46.527Z,23.50
2018-03-19T13:03:14.027Z,23.10
2018-03-19T13:05:41.599Z,22.50
2018-03-19T13:08:09.053Z,22.80
2018-03-19T13:10:36.543Z,22.00
2018-03-19T13:13:04.007Z,21.70
2018-03-19T13:15:31.540Z,22.40
2018-03-19T13:17:59.013Z,22.20
2018-03-19T13:20:26.462Z,20.90
2018-03-19T13:22:54.710Z,22.10
2018-03-19T13:25:22.170Z,22.10
2018-03-19T13:27:49.642Z,22.30
2018-03-19T13:30:17.094Z,22.30
2018-03-19T13:32:44.555Z,23.60
2018-03-19T13:35:12.015Z,22.80
2018-03-19T13:37:39.547Z,22.70
2018-03-19T13:40:07.791Z,23.00
2018-03-19T13:42:36.023Z,22.70
2018-03-19T13:45:04.987Z,22.40
2018-03-19T13:47:32.443Z,22.30
2018-03-19T13:49:59.906Z,22.40
2018-03-19T13:52:27.358Z,21.50
2018-03-19T13:54:55.587Z,24.30
2018-03-19T13:57:23.046Z,24.30
2018-03-19T13:59:50.503Z,24.70
2018-03-19T14:02:17.969Z,25.10
2018-03-19T14:04:45.417Z,25.70
2018-03-19T14:07:13.731Z,26.50
2018-03-19T14:09:41.243Z,26.50
2018-03-19T14:12:08.694Z,26.00
2018-03-19T14:14:36.159Z,25.90
2018-03-19T14:17:03.681Z,27.10
2018-03-19T14:19:31.130Z,26.70
2018-03-19T14:21:58.650Z,27.10
2018-03-19T14:24:26.123Z,27.40
2018-03-19T14:26:53.591Z,26.40
2018-03-19T14:29:21.044Z,26.40
2018-03-19T14:31:49.278Z,27.00
2018-03-19T14:34:16.743Z,27.00
2018-03-19T14:36:44.289Z,26.20
2018-03-19T14:39:11.751Z,25.50
2018-03-19T14:41:39.998Z,26.50
2018-03-19T14:44:07.466Z,26.40
2018-03-19T14:46:34.930Z,27.80
2018-03-19T14:49:02.382Z,26.70
2018-03-19T14:51:29.854Z,27.60
2018-03-19T14:53:57.315Z,28.30
2018-03-19T14:56:24.799Z,27.50
2018-03-19T14:58:52.284Z,27.60
2018-03-19T15:01:19.777Z,27.40
2018-03-19T15:03:47.241Z,28.90
2018-03-19T15:06:14.694Z,29.40
2018-03-19T15:08:42.168Z,33.10
2018-03-19T15:11:09.612Z,35.50
2018-03-19T15:13:37.067Z,35.00
2018-03-19T15:16:04.538Z,37.50
2018-03-19T15:18:31.990Z,38.20
2018-03-19T15:20:59.514Z,39.70
2018-03-19T15:23:27.039Z,39.90
2018-03-19T15:25:54.607Z,41.20
2018-03-19T15:28:22.029Z,40.40
2018-03-19T15:30:49.475Z,40.10
2018-03-19T15:33:16.962Z,40.90
2018-03-19T15:35:44.411Z,39.30
2018-03-19T15:38:11.981Z,40.30
2018-03-19T15:40:40.175Z,41.10
2018-03-19T15:43:07.647Z,41.20
2018-03-19T15:45:35.126Z,41.30
2018-03-19T15:48:02.581Z,41.20
2018-03-19T15:50:30.031Z,42.00
2018-03-19T15:52:57.600Z,41.00
2018-03-19T15:55:25.068Z,42.10
2018-03-19T15:57:52.591Z,42.70
2018-03-19T16:00:20.111Z,43.20
2018-03-19T16:02:47.556Z,45.60
2018-03-19T16:05:15.779Z,47.90
2018-03-19T16:07:43.225Z,47.80
2018-03-19T16:10:11.470Z,46.30
2018-03-19T16:12:38.925Z,46.30
2018-03-19T16:15:06.366Z,47.20
2018-03-19T16:17:33.838Z,47.30
2018-03-19T16:20:01.301Z,46.90
2018-03-19T16:22:28.762Z,48.10
2018-03-19T16:24:56.999Z,48.20
2018-03-19T16:27:24.532Z,48.20
2018-03-19T16:29:51.943Z,49.30
2018-03-19T16:32:20.042Z,49.20
2018-03-19T16:34:47.599Z,49.70
2018-03-19T16:37:15.051Z,53.40
2018-03-19T16:39:42.506Z,52.60
2018-03-19T16:42:10.021Z,51.70
2018-03-19T16:44:37.436Z,52.80
2018-03-19T16:47:05.669Z,52.00
2018-03-19T16:49:33.118Z,52.00
2018-03-19T16:52:00.573Z,51.80
2018-03-19T16:54:28.031Z,52.20
2018-03-19T16:56:55.475Z,51.30
2018-03-19T16:59:23.735Z,51.80
2018-03-19T17:01:51.198Z,51.80
2018-03-19T17:04:18.770Z,52.70
2018-03-19T17:06:46.302Z,52.20
2018-03-19T17:09:13.742Z,52.10
2018-03-19T17:11:41.202Z,52.50
2018-03-19T17:14:08.758Z,52.50
2018-03-19T17:16:36.334Z,52.40
2018-03-19T17:19:03.818Z,52.40
2018-03-19T17:21:31.286Z,52.30
2018-03-19T17:23:58.862Z,52.70
2018-03-19T17:26:26.371Z,52.80
2018-03-19T17:28:54.051Z,52.70
2018-03-19T17:31:21.513Z,57.40
2018-03-19T17:33:49.751Z,53.60
2018-03-19T17:36:17.219Z,53.50
2018-03-19T17:38:44.682Z,53.10
2018-03-19T17:41:12.179Z,53.00
2018-03-19T17:43:39.639Z,53.80
2018-03-19T17:46:07.094Z,54.90
2018-03-19T17:48:34.557Z,54.10
2018-03-19T17:51:02.039Z,54.40
2018-03-19T17:53:29.602Z,54.30
2018-03-19T17:55:57.071Z,55.10
2018-03-19T17:58:24.522Z,54.50
2018-03-19T18:00:51.985Z,54.70
2018-03-19T18:03:19.441Z,54.70
2018-03-19T18:05:46.923Z,55.00
2018-03-19T18:08:14.370Z,55.00
2018-03-19T18:10:42.599Z,55.00
2018-03-19T18:13:10.082Z,55.00
2018-03-19T18:15:37.526Z,54.90
2018-03-19T18:18:05.003Z,55.30
2018-03-19T18:20:32.454Z,55.20
2018-03-19T18:22:59.958Z,55.90
2018-03-19T18:25:27.535Z,55.60
2018-03-19T18:27:54.991Z,55.80
2018-03-19T18:30:22.461Z,55.50
2018-03-19T18:32:49.907Z,55.50
2018-03-19T18:35:17.364Z,56.10
2018-03-19T18:37:44.826Z,56.10
2018-03-19T18:40:13.040Z,55.60
2018-03-19T18:42:41.511Z,55.70
2018-03-19T18:45:08.985Z,56.00
2018-03-19T18:47:37.190Z,56.10
2018-03-19T18:50:04.691Z,56.10
2018-03-19T18:52:32.107Z,57.20
2018-03-19T18:54:59.588Z,56.70
2018-03-19T18:57:27.047Z,56.70
2018-03-19T18:59:55.259Z,57.70
2018-03-19T19:02:22.715Z,57.80
2018-03-19T19:04:50.163Z,57.70
2018-03-19T19:07:18.408Z,56.70
2018-03-19T19:09:45.862Z,56.70
2018-03-19T19:12:13.310Z,56.50
2018-03-19T19:14:40.778Z,55.50
2018-03-19T19:17:09.006Z,55.50
2018-03-19T19:19:36.574Z,55.50
2018-03-19T19:22:04.036Z,55.00
2018-03-19T19:24:31.527Z,55.30
2018-03-19T19:26:59.104Z,54.80
2018-03-19T19:29:26.559Z,54.30
2018-03-19T19:31:54.089Z,55.00
2018-03-19T19:34:22.290Z,54.90
2018-03-19T19:36:49.766Z,54.90
2018-03-19T19:39:17.227Z,54.00
2018-03-19T19:41:44.671Z,53.70
2018-03-19T19:44:12.904Z,56.00
2018-03-19T19:49:03.867Z,54.80
2018-03-19T19:51:31.314Z,53.30
2018-03-19T19:53:58.834Z,54.80
2018-03-19T19:56:27.058Z,54.80
2018-03-19T19:58:54.618Z,54.70
2018-03-19T20:01:22.100Z,54.90
2018-03-19T20:03:49.547Z,54.20
2018-03-19T20:06:17.763Z,55.00
2018-03-19T20:08:45.242Z,54.90
2018-03-19T20:11:12.684Z,54.30
2018-03-19T20:13:40.500Z,53.90
2018-03-19T20:16:07.946Z,53.90
2018-03-19T20:18:35.387Z,53.40
2018-03-19T20:21:03.639Z,53.70
2018-03-19T20:23:31.416Z,53.60
2018-03-19T20:25:58.937Z,54.80
2018-03-19T20:28:26.390Z,54.60
2018-03-19T20:30:54.638Z,55.70
2018-03-19T20:33:22.110Z,55.60
2018-03-19T20:35:49.579Z,54.70
2018-03-19T20:38:17.043Z,54.10
2018-03-19T20:40:44.504Z,54.30
2018-03-19T20:43:11.983Z,54.50
2018-03-19T20:45:39.460Z,53.90
2018-03-19T20:48:07.028Z,54.50
2018-03-19T20:50:35.311Z,55.00
2018-03-19T20:53:02.778Z,55.00
2018-03-19T20:55:30.354Z,55.20
2018-03-19T20:57:57.831Z,54.70
2018-03-19T21:00:25.299Z,54.80
2018-03-19T21:02:52.775Z,54.70
2018-03-19T21:05:20.251Z,54.60
2018-03-19T21:07:47.695Z,54.40
2018-03-19T21:10:15.151Z,54.40
2018-03-19T21:12:42.645Z,53.60
2018-03-19T21:15:10.116Z,53.70
2018-03-19T21:17:37.563Z,54.00
2018-03-19T21:20:06.142Z,53.90
2018-03-19T21:22:33.586Z,53.90
2018-03-19T21:25:01.842Z,54.30
2018-03-19T21:27:29.330Z,54.20
2018-03-19T21:29:56.785Z,53.90
2018-03-19T21:32:24.239Z,52.60
2018-03-19T21:34:51.707Z,53.30
2018-03-19T21:37:19.160Z,52.00
2018-03-19T21:39:46.623Z,52.40
2018-03-19T21:42:14.084Z,51.30
2018-03-19T21:44:41.538Z,51.40
2018-03-19T21:47:09.747Z,51.60
2018-03-19T21:49:37.362Z,51.50
2018-03-19T21:52:04.836Z,51.90
2018-03-19T21:54:32.279Z,52.00
2018-03-19T21:56:59.742Z,52.80
2018-03-19T21:59:27.192Z,52.20
2018-03-19T22:01:54.630Z,52.60
2018-03-19T22:04:22.955Z,53.60
2018-03-19T22:06:50.410Z,53.60
2018-03-19T22:09:18.655Z,54.10
2018-03-19T22:11:46.127Z,53.90
2018-03-19T22:14:13.595Z,52.60
2018-03-19T22:16:41.067Z,53.20
2018-03-19T22:19:08.552Z,52.20
2018-03-19T22:21:36.107Z,52.20
2018-03-19T22:24:03.562Z,52.20
2018-03-19T22:26:31.042Z,52.40
2018-03-19T22:28:58.510Z,52.80
2018-03-19T22:31:25.983Z,53.00
2018-03-19T22:33:53.454Z,53.90
2018-03-19T22:36:20.910Z,53.40
2018-03-19T22:38:48.370Z,53.80
2018-03-19T22:41:15.825Z,53.40
2018-03-19T22:43:43.335Z,53.90
2018-03-19T22:46:10.802Z,54.10
2018-03-19T22:48:38.296Z,54.70
2018-03-19T22:51:05.751Z,55.00
2018-03-19T22:53:33.235Z,55.00
2018-03-19T22:56:00.742Z,55.10
2018-03-19T22:58:28.186Z,55.10
2018-03-19T23:00:56.445Z,55.60
2018-03-19T23:03:23.922Z,55.60
2018-03-19T23:05:51.379Z,55.60
2018-03-19T23:08:18.835Z,55.20
2018-03-19T23:10:46.314Z,55.30
2018-03-19T23:13:13.780Z,55.60
2018-03-19T23:15:41.232Z,55.60
2018-03-19T23:18:08.730Z,56.20
2018-03-19T23:20:36.203Z,57.30
2018-03-19T23:23:03.690Z,59.70
2018-03-19T23:25:31.132Z,59.50
2018-03-19T23:27:58.582Z,59.10
2018-03-19T23:30:26.035Z,59.50
2018-03-19T23:32:53.509Z,59.50
2018-03-19T23:35:21.076Z,58.70
2018-03-19T23:37:48.531Z,57.70
2018-03-19T23:40:16.779Z,59.20
2018-03-19T23:42:44.234Z,59.20
2018-03-19T23:45:11.722Z,58.70
2018-03-19T23:47:39.191Z,59.10
2018-03-19T23:50:06.655Z,59.40
2018-03-19T23:52:34.106Z,59.00
2018-03-19T23:55:01.574Z,59.70
2018-03-19T23:57:29.030Z,62.70
2018-03-19T23:59:56.537Z,62.00
